• Join FlightAware (Why Join?)
  • Login
  • US Flag 
Rudolph Flight #1: Arrived! 
09:20AM EST


 

Airport Tracker/Info


-or-


 

Live Flight TrackerFlight Track Log ✈ LXJ523 ✈ 18-May-2013 ✈ KPBI - MMUN / CUN

Flight Track Log - Related Links

Times and Time Zones

All times are in EDT time to prevent confusion due to time zone crossing. See the LXJ523 flight status page for this flight to view local times or setup timezone preferences in your user account.

Time Position Orientation Groundspeed Altitude Reporting Facility
EDT Latitude Longitude Course Direction KTS MPH feet Rate Location/Type
08:42AM 26.6647 -80.0067 270° West 245 282 3,900  Level Miami Center
08:45AM 26.5592 -79.9983 241° Southwest  Level FlightAware Approximate
08:45AM 26.5897 -80.1858 241° Southwest 309 356 10,100  Level Miami Center
08:46AM 26.5978 -80.2836 275° West 329 379 11,200 1,620 Climbing Miami Center
08:47AM 26.6000 -80.3858 270° West  Level FlightAware Approximate
08:47AM 26.6058 -80.3906 275° West 335 386 13,400  Level Miami Center
08:48AM 26.6000 -80.5170 270° West  Level FlightAware Approximate
08:48AM 26.6114 -80.5069 273° West 373 429 16,200  Level Miami Center
08:49AM 26.5856 -80.6178 255° West 380 437 19,100 2,400 Climbing Miami Center
08:50AM 26.4858 -80.6772 208° Southwest 363 418 21,100 1,860 Climbing Miami Center
08:51AM 26.3861 -80.7389 209° Southwest 397 457 22,900 1,800 Climbing Miami Center
08:52AM 26.2778 -80.8047 209° Southwest 432 497 24,800 1,740 Climbing Miami Center
08:53AM 26.1903 -80.8689 213° Southwest 437 503 26,400 1,500 Climbing Miami Center
08:54AM 26.1003 -80.9586 222° Southwest 432 497 27,900 1,500 Climbing Miami Center
08:55AM 26.0097 -81.0547 224° Southwest 439 505 29,500 1,560 Climbing Miami Center
08:56AM 25.9194 -81.1439 222° Southwest 446 513 31,100 1,560 Climbing Miami Center
08:57AM 25.8289 -81.2353 222° Southwest 446 513 32,700 1,560 Climbing Miami Center
08:58AM 25.7364 -81.3289 222° Southwest 446 513 34,300 1,500 Climbing Miami Center
08:59AM 25.6458 -81.4200 222° Southwest 446 513 35,700 1,260 Climbing Miami Center
09:00AM 25.5553 -81.5108 222° Southwest 446 513 36,900 1,200 Climbing Miami Center
09:01AM 25.4561 -81.6128 223° Southwest 446 513 38,200 1,320 Climbing Miami Center
09:02AM 25.3739 -81.6947 222° Southwest 446 513 39,600 1,320 Climbing Miami Center
09:03AM 25.2856 -81.7808 221° Southwest 436 502 40,900 960 Climbing Miami Center
09:04AM 25.2014 -81.8644 222° Southwest 423 487 41,600 600 Climbing Miami Center
09:05AM 25.1189 -81.9506 223° Southwest 418 481 42,100 480 Climbing Miami Center
09:06AM 25.0283 -82.0361 221° Southwest 418 481 42,600 420 Climbing Miami Center
09:07AM 24.9439 -82.1219 223° Southwest 418 481 43,000 180 Climbing Miami Center
09:08AM 24.8572 -82.2053 221° Southwest 418 481 43,000  Level Miami Center
09:09AM 24.7750 -82.2886 223° Southwest 418 481 43,000  Level Miami Center
09:10AM 24.6925 -82.3717 222° Southwest 413 475 43,000  Level Miami Center
09:11AM 24.6078 -82.4592 223° Southwest 413 475 43,000  Level Miami Center
09:12AM 24.5233 -82.5422 222° Southwest 413 475 43,000  Level Miami Center
09:13AM 24.4386 -82.6250 222° Southwest 407 468 43,000  Level Miami Center
09:14AM 24.3519 -82.7075 221° Southwest 407 468 43,000  Level Miami Center
09:15AM 24.2650 -82.7922 222° Southwest 407 468 43,000  Level Miami Center
09:16AM 24.1803 -82.8769 222° Southwest 412 474 43,000  Level Miami Center
09:17AM 24.0892 -82.9636 221° Southwest 412 474 43,000  Level Miami Center
09:19AM 23.9876 -83.0612 244° Southwest  Level FlightAware Approximate
09:26AM 23.6513 -83.8116 244° Southwest  Level FlightAware Approximate
09:27AM 23.6029 -83.9185 244° Southwest  Level FlightAware Approximate
09:28AM 23.5545 -84.0253 244° Southwest  Level FlightAware Approximate
09:29AM 23.5060 -84.1320 244° Southwest  Level FlightAware Approximate
09:30AM 23.4574 -84.2386 244° Southwest  Level FlightAware Approximate
09:31AM 23.4088 -84.3452 244° Southwest  Level FlightAware Approximate
09:32AM 23.3601 -84.4517 244° Southwest  Level FlightAware Approximate
09:33AM 23.3113 -84.5581 243° Southwest  Level FlightAware Approximate
09:34AM 23.2624 -84.6645 243° Southwest  Level FlightAware Approximate
09:35AM 23.2135 -84.7707 243° Southwest  Level FlightAware Approximate
09:36AM 23.1391 -84.8549 220° Southwest  Level FlightAware Approximate
09:37AM 23.0549 -84.9306 220° Southwest  Level FlightAware Approximate
09:38AM 22.9689 -85.0037 218° Southwest  Level FlightAware Approximate
09:39AM 22.8860 -85.0807 223° Southwest  Level FlightAware Approximate
09:40AM 22.8057 -85.1610 223° Southwest  Level FlightAware Approximate
09:41AM 22.7254 -85.2413 223° Southwest  Level FlightAware Approximate
09:42AM 22.6452 -85.3215 223° Southwest  Level FlightAware Approximate
09:43AM 22.5630 -85.3994 221° Southwest  Level FlightAware Approximate
09:44AM 22.4804 -85.4768 221° Southwest  Level FlightAware Approximate
09:45AM 22.3979 -85.5542 221° Southwest  Level FlightAware Approximate
09:46AM 22.3106 -85.6242 229° Southwest  Level FlightAware Approximate
09:47AM 22.2379 -85.7121 223° Southwest  Level FlightAware Approximate
09:48AM 22.1578 -85.7923 223° Southwest  Level FlightAware Approximate
09:49AM 22.0728 -85.8662 217° Southwest  Level FlightAware Approximate
09:50AM 21.9858 -85.9374 217° Southwest  Level FlightAware Approximate
09:51AM 21.9110 -86.0201 220° Southwest  Level FlightAware Approximate
09:52AM 21.8272 -86.0956 220° Southwest  Level FlightAware Approximate
09:53AM 21.7434 -86.1710 220° Southwest  Level FlightAware Approximate
09:54AM 21.6596 -86.2464 220° Southwest  Level FlightAware Approximate
09:55AM 21.5755 -86.3214 219° Southwest  Level FlightAware Approximate
09:56AM 21.4908 -86.3955 219° Southwest  Level FlightAware Approximate
09:57AM 21.4124 -86.4770 226° Southwest  Level FlightAware Approximate
09:58AM 21.3365 -86.5613 226° Southwest  Level FlightAware Approximate
09:59AM 21.2542 -86.6380 219° Southwest  Level FlightAware Approximate
10:00AM 21.1703 -86.7130 223° Southwest  Level FlightAware Approximate
10:01AM 21.0883 -86.7879 231° Southwest  Level FlightAware Approximate
10:02AM 21.0167 -86.8667 270° West  Level FlightAware Approximate
10:03AM 21.0365 -86.8771 270° West  Level Estimated
10:04AM 21.0365 -86.8771 270° West  Level Estimated
10:05AM 21.0365 -86.8771 270° West  Level Estimated
10:06AM 21.0365 -86.8771 270° West  Level Estimated
10:07AM 21.0365 -86.8771 270° West  Level Estimated
10:08AM 21.0365 -86.8771 270° West  Level Estimated
10:09AM 21.0365 -86.8771 270° West  Level Estimated
10:10AM 21.0365 -86.8771 270° West  Level Estimated
10:11AM 21.0365 -86.8771 270° West  Level Estimated
10:12AM 21.0365 -86.8771 270° West  Level Estimated
10:13AM 21.0365 -86.8771 270° West  Level Estimated
10:14AM 21.0365 -86.8771 270° West  Level Estimated
10:15AM 21.0365 -86.8771 270° West  Level Estimated
10:16AM 21.0365 -86.8771 270° West  Level Estimated
10:17AM 21.0365 -86.8771 270° West  Level Estimated
10:18AM 21.0365 -86.8771 270° West  Level Estimated
10:19AM 21.0365 -86.8771 270° West  Level Estimated